FW1225 Weather Reports


time (UTC)temp
F
wind
direction
speed
knots
gust
knots
rain 1hr
in
rain 24hr
in
rain mn
in
humidity
%
barometer
mb
20211017144452 58 41 2.6 7.0 0.00 0.00 0.00 55 998.7
20211017143813 56 5 4.3 7.0 0.00 0.00 0.00 57 998.7
20211017143132 55 18 4.3 7.8 0.00 0.00 0.00 58 998.7
20211017142452 55 26 3.5 7.0 0.00 0.00 0.00 61 998.7
20211017141812 55 17 2.6 4.3 0.00 0.00 0.00 63 998.7
20211017141132 54 28 1.7 5.2 0.00 0.00 0.00 68 998.7
20211017135812 52 360 2.6 4.3 0.00 0.00 0.00 70 998.5
20211017135132 51 358 3.5 5.2 0.00 0.00 0.00 74 998.4
20211017134452 51 357 2.6 4.3 0.00 0.00 0.00 75 998.3
20211017133812 50 352 2.6 4.3 0.00 0.00 0.00 77 998.3
20211017131812 48 340 3.5 4.3 0.00 0.00 0.00 82 998.5
20211017131132 48 7 3.5 4.3 0.00 0.00 0.00 81 998.4
20211017125812 48 347 1.7 3.5 0.00 0.00 0.00 85 998.3
20211017125132 47 345 2.6 3.5 0.00 0.00 0.00 85 998.3
20211017122452 44 331 0.9 1.7 0.00 0.00 0.00 100 998.2
20211017121812 43 245 0.0 0.0 0.00 0.00 0.00 100 998.2
20211017121132 43 242 0.0 0.0 0.00 0.00 0.00 100 998.1
20211017115812 42 308 0.0 0.0 0.00 0.00 0.00 100 998.1
20211017115132 42 259 0.0 0.0 0.00 0.00 0.00 99 998.0
20211017113812 42 245 0.0 0.0 0.00 0.00 0.00 99 997.8
20211017113132 42 248 0.0 0.0 0.00 0.00 0.00 99 997.8
20211017112452 43 251 0.0 0.0 0.00 0.00 0.00 99 997.7
20211017111812 43 253 0.0 0.0 0.00 0.00 0.00 99 997.7
20211017111132 43 263 0.0 0.0 0.00 0.00 0.00 99 997.7
20211017105812 43 252 0.0 0.0 0.00 0.00 0.00 99 997.6
20211017104452 43 243 0.0 0.0 0.00 0.00 0.00 98 997.6
20211017103813 43 231 0.0 0.0 0.00 0.00 0.00 98 997.6
20211017103132 44 263 0.0 0.0 0.00 0.00 0.00 98 997.5
20211017101812 44 267 0.0 0.0 0.00 0.00 0.00 98 997.4
20211017100452 44 245 0.0 0.0 0.00 0.00 0.00 98 997.3
20211017095812 44 258 0.0 0.0 0.00 0.00 0.00 98 997.3
20211017095132 44 268 0.0 0.0 0.00 0.00 0.00 98 997.3
20211017093132 44 257 0.0 0.9 0.00 0.00 0.00 97 997.2
20211017092452 44 218 0.0 1.7 0.00 0.00 0.00 97 997.2
20211017091812 44 224 0.9 1.7 0.00 0.00 0.00 97 997.1
20211017090452 44 216 0.0 0.0 0.00 0.00 0.00 97 996.9
20211017083812 44 276 0.0 0.0 0.00 0.00 0.00 95 996.9
20211017081132 45 235 0.0 0.0 0.00 0.00 0.00 95 996.8
20211017080452 45 249 0.0 0.9 0.00 0.00 0.00 94 996.9
20211017075812 45 187 0.0 0.9 0.00 0.00 0.00 93 997.0
20211017072452 47 92 0.0 1.7 0.00 0.00 0.00 85 997.0
20211017071132 49 335 1.7 3.5 0.00 0.00 0.00 80 997.0
20211017070452 48 5 2.6 3.5 0.00 0.00 0.00 83 997.0
20211017064452 47 69 2.6 3.5 0.00 0.00 0.00 91 996.8
20211017063132 47 68 0.9 4.3 0.00 0.00 0.00 93 996.8
20211017062453 46 292 1.7 4.3 0.00 0.00 0.00 94 996.8
20211017061812 46 83 0.0 1.7 0.00 0.00 0.00 95 996.8
20211017061132 46 79 1.7 1.7 0.00 0.00 0.00 94 996.8
20211017060452 46 37 0.0 0.0 0.00 0.00 0.00 94 996.8
20211017055812 46 70 0.0 0.0 0.00 0.00 0.00 94 996.7
20211017055132 46 310 0.0 1.7 0.00 0.00 0.00 93 996.6
20211017054453 46 37 0.9 1.7 0.00 0.00 0.00 94 996.6
20211017053132 47 84 0.0 1.7 0.00 0.00 0.00 92 996.6
20211017052452 47 78 0.9 2.6 0.00 0.00 0.00 92 996.5
20211017051133 47 320 0.0 2.6 0.00 0.00 0.00 90 996.6
20211017043812 48 302 0.0 1.7 0.00 0.00 0.26 89 996.6
20211017040452 47 54 0.0 0.0 0.00 0.00 0.26 95 996.7
20211017035812 47 144 0.0 0.0 0.00 0.00 0.26 94 996.6
20211017034452 48 82 0.0 0.0 0.00 0.00 0.26 92 996.6
20211017033132 48 71 0.0 1.7 0.00 0.00 0.26 91 996.7
20211017032452 48 76 1.7 1.7 0.00 0.00 0.26 90 996.7
20211017031812 48 119 0.0 0.0 0.00 0.00 0.26 89 996.7
20211017030453 49 192 0.0 0.0 0.00 0.00 0.26 87 996.7
20211017025812 49 106 0.0 0.0 0.00 0.00 0.26 86 996.6
20211017025132 49 85 0.0 0.0 0.00 0.00 0.26 86 996.6
20211017024452 49 137 0.0 1.7 0.00 0.00 0.26 85 996.5
20211017023813 49 184 0.0 1.7 0.00 0.00 0.26 82 996.4
20211017023132 49 202 0.0 1.7 0.00 0.00 0.26 84 996.3
20211017022452 49 203 0.0 0.0 0.00 0.00 0.26 85 996.2
20211017020452 50 201 0.0 0.0 0.00 0.00 0.26 80 996.2
20211017015812 50 194 0.0 0.0 0.00 0.00 0.26 83 996.2
20211017015132 50 167 0.0 0.9 0.00 0.00 0.26 82 996.2
20211017014452 51 61 0.0 1.7 0.00 0.00 0.26 80 996.2
20211017013812 51 190 0.9 1.7 0.00 0.00 0.26 79 996.1
20211017011812 52 185 0.0 1.7 0.00 0.00 0.26 71 996.0
20211017010452 54 235 0.9 2.6 0.00 0.00 0.26 64 995.9
20211017005812 54 253 0.9 2.6 0.00 0.00 0.26 68 995.9
20211017005132 54 256 0.9 2.6 0.00 0.00 0.26 65 995.8
20211017003812 56 312 1.7 2.6 0.00 0.00 0.26 60 995.7
20211017002452 56 293 0.9 4.3 0.00 0.00 0.26 61 995.8
20211017001133 56 321 2.6 3.5 0.00 0.00 0.26 57 995.6
20211017000452 57 294 1.7 4.3 0.00 0.00 0.26 62 995.6
20211016233812 57 302 0.9 3.5 0.00 0.00 0.26 55 995.2
20211016232452 58 294 1.7 4.3 0.00 0.00 0.26 52 994.9
20211016231812 59 305 0.9 3.5 0.00 0.00 0.26 52 994.9
20211016230452 59 269 1.7 7.8 0.00 0.00 0.26 52 995.0
20211016225133 61 330 2.6 7.0 0.00 0.00 0.26 44 994.9
20211016224452 62 338 4.3 11.3 0.00 0.00 0.26 43 994.8
20211016222452 62 331 6.1 11.3 0.00 0.00 0.26 40 994.9
20211016221812 63 340 7.8 13.9 0.00 0.00 0.26 38 994.8
20211016220452 63 1 4.3 13.0 0.00 0.00 0.26 39 995.0
20211016215812 64 338 7.0 11.3 0.00 0.00 0.26 37 994.9
20211016215132 63 333 5.2 12.2 0.00 0.00 0.26 38 994.8
20211016211132 63 329 3.5 12.2 0.00 0.00 0.26 38 994.7
20211016210452 64 326 7.0 12.2 0.00 0.00 0.26 35 994.7
20211016205132 64 337 7.8 13.9 0.00 0.00 0.26 35 994.8
20211016204452 64 349 7.8 13.9 0.00 0.00 0.26 34 994.8
20211016203812 64 342 7.0 13.9 0.00 0.00 0.26 35 994.9
20211016203133 64 346 5.2 16.5 0.00 0.00 0.26 35 995.1
20211016202452 65 345 6.1 12.2 0.00 0.00 0.26 36 994.9
20211016201812 64 3 5.2 13.0 0.00 0.00 0.26 34 994.7
20211016201132 64 346 7.8 13.9 0.00 0.00 0.26 34 994.7
20211016200452 64 338 8.7 13.9 0.00 0.00 0.26 34 994.8
20211016194452 66 351 5.2 14.8 0.00 0.00 0.26 34 994.6
20211016192452 64 354 10.4 20.0 0.00 0.00 0.26 35 994.7
20211016190452 64 337 7.8 17.4 0.00 0.00 0.26 34 994.9
20211016183812 65 354 5.2 15.6 0.00 0.00 0.26 35 995.1
20211016183132 64 348 9.6 15.6 0.00 0.00 0.26 37 995.1
20211016182452 64 340 6.1 12.2 0.00 0.00 0.26 36 995.1
20211016180452 64 354 7.0 14.8 0.00 0.00 0.26 36 995.5
20211016174452 62 333 12.2 20.9 0.00 0.00 0.26 37 995.2
20211016173812 63 346 9.6 16.5 0.00 0.00 0.26 38 995.5
20211016171813 63 348 8.7 13.9 0.00 0.00 0.26 40 995.8
20211016171132 62 1 8.7 13.9 0.00 0.00 0.26 42 995.8
20211016170452 62 2 7.8 13.0 0.00 0.00 0.26 42 996.0
20211016165133 62 339 9.6 17.4 0.00 0.00 0.26 42 996.0
20211016164452 62 348 8.7 16.5 0.00 0.00 0.26 43 995.9
20211016163812 61 350 9.6 16.5 0.00 0.00 0.26 45 996.0
20211016162452 61 343 8.7 18.2 0.00 0.00 0.26 42 995.8
20211016161812 62 350 9.6 15.6 0.00 0.00 0.26 44 995.7
20211016160452 60 337 12.2 16.5 0.00 0.00 0.26 44 995.9
20211016155812 60 328 9.6 18.2 0.00 0.00 0.26 47 995.6
20211016152452 59 344 11.3 17.4 0.00 0.00 0.26 51 995.4
20211016151812 59 340 9.6 17.4 0.00 0.00 0.26 51 995.3